Time;durP1;ratioP1;P1;durP2;ratioP2;P2;SDS_P1;SDS_P2;PMS_P1;PMS_P2;Temp;Humidity;BMP_temperature;BMP_pressure;BME280_temperature;BME280_humidity;BME280_pressure;Samples;Min_cycle;Max_cycle;Signal;HPM_P1;HPM_P2
2022/11/15 00:00:03;;;;;;;3.27;3.00;;;;;;;2.74;56.69;101828.65;475238;111;922474;-84
2022/11/15 00:01:24;;;;;;;4.38;3.54;;;;;;;2.75;56.52;101835.75;475185;111;922543;-84
2022/11/15 00:02:46;;;;;;;3.53;3.23;;;;;;;2.76;56.52;101831.19;475263;111;922600;-84
2022/11/15 00:04:08;;;;;;;4.53;3.73;;;;;;;2.75;56.53;101830.36;475866;111;922534;-84
2022/11/15 00:05:29;;;;;;;3.28;3.02;;;;;;;2.75;56.41;101832.20;475865;111;922592;-83
2022/11/15 00:06:50;;;;;;;;;;;;;;;2.75;56.56;101833.05;479870;111;922164;-86
2022/11/15 00:08:11;;;;;;;2.88;2.61;;;;;;;2.75;56.43;101826.81;475924;111;922352;-85
2022/11/15 00:09:32;;;;;;;2.71;2.51;;;;;;;2.71;56.50;101831.59;475845;111;922812;-83
2022/11/15 00:10:59;;;;;;;;;;;;;;;2.70;56.51;101829.05;479770;111;922300;-81
2022/11/15 00:12:21;;;;;;;3.41;2.86;;;;;;;2.67;56.47;101824.78;475931;111;922279;-85
2022/11/15 00:13:42;;;;;;;2.96;2.69;;;;;;;2.60;56.57;101834.36;475802;111;922364;-84
2022/11/15 00:15:03;;;;;;;;;;;;;;;2.57;56.55;101834.64;479762;111;921986;-82
2022/11/15 00:16:25;;;;;;;2.54;2.34;;;;;;;2.56;56.66;101841.01;473292;111;922346;-85
2022/11/15 00:17:50;;;;;;;2.05;1.95;;;;;;;2.52;56.73;101836.87;467378;113;922493;-84
2022/11/15 00:19:11;;;;;;;2.72;2.27;;;;;;;2.52;56.89;101839.57;467377;113;922954;-85
2022/11/15 00:20:35;;;;;;;;;;;;;;;2.52;56.98;101836.87;471292;113;922219;-85
2022/11/15 00:21:55;;;;;;;3.10;2.48;;;;;;;2.55;56.98;101835.75;467413;113;922379;-81
2022/11/15 00:23:17;;;;;;;2.50;2.08;;;;;;;2.53;56.98;101840.43;467463;113;922978;-82
2022/11/15 00:24:39;;;;;;;2.32;2.05;;;;;;;2.50;57.02;101845.08;467402;113;922592;-83
2022/11/15 00:25:59;;;;;;;;;;;;;;;2.53;57.10;101841.28;471221;113;922477;-81
2022/11/15 00:27:20;;;;;;;2.61;2.32;;;;;;;2.53;56.95;101845.81;467420;113;922242;-83
2022/11/15 00:28:42;;;;;;;;;;;;;;;2.48;57.07;101840.83;471294;113;922249;-84
2022/11/15 00:30:03;;;;;;;2.04;1.87;;;;;;;2.47;57.14;101845.36;467421;113;922182;-81
2022/11/15 00:31:25;;;;;;;2.64;2.20;;;;;;;2.45;57.17;101849.15;467406;113;922592;-83
2022/11/15 00:32:46;;;;;;;2.33;2.13;;;;;;;2.43;57.22;101851.97;467418;113;922820;-82
2022/11/15 00:34:07;;;;;;;2.58;2.38;;;;;;;2.42;57.23;101847.59;470442;111;922332;-86
2022/11/15 00:35:30;;;;;;;2.08;1.88;;;;;;;2.44;57.23;101844.74;472903;112;922563;-84
2022/11/15 00:36:51;;;;;;;2.71;2.48;;;;;;;2.46;57.26;101843.64;472898;112;922576;-84
2022/11/15 00:38:13;;;;;;;2.69;2.29;;;;;;;2.47;57.27;101845.36;472814;112;922477;-82
2022/11/15 00:39:34;;;;;;;2.66;1.97;;;;;;;2.48;57.35;101849.73;473082;112;922616;-84
2022/11/15 00:40:55;;;;;;;2.24;2.04;;;;;;;2.53;57.30;101851.20;472813;112;922573;-83
2022/11/15 00:42:16;;;;;;;4.42;4.12;;;;;;;2.55;57.34;101844.67;472829;112;922614;-84
2022/11/15 00:43:39;;;;;;;5.36;4.92;;;;;;;2.58;57.34;101847.13;472787;112;922536;-86
2022/11/15 00:45:01;;;;;;;5.73;5.30;;;;;;;2.60;57.37;101850.52;472894;112;922464;-84
2022/11/15 00:46:22;;;;;;;5.07;4.67;;;;;;;2.61;57.27;101852.23;472893;112;922567;-84
2022/11/15 00:47:46;;;;;;;4.97;4.57;;;;;;;2.62;57.35;101851.25;472851;112;922519;-83
2022/11/15 00:49:08;;;;;;;5.29;4.80;;;;;;;2.64;57.28;101849.29;475388;110;922713;-84
2022/11/15 00:50:29;;;;;;;;;;;;;;;2.65;57.21;101850.97;483566;110;922042;-85
2022/11/15 00:51:50;;;;;;;5.21;4.73;;;;;;;2.65;57.21;101850.97;479586;110;922308;-85
2022/11/15 00:53:12;;;;;;;4.97;4.57;;;;;;;2.63;57.27;101852.11;479558;110;922557;-82
2022/11/15 00:54:32;;;;;;;;;;;;;;;2.63;57.45;101849.41;483529;110;922106;-82
2022/11/15 00:55:54;;;;;;;4.99;4.60;;;;;;;2.62;57.35;101851.25;479535;110;922230;-82
2022/11/15 00:57:15;;;;;;;6.07;5.47;;;;;;;2.57;57.40;101848.10;479568;110;922685;-84
2022/11/15 00:58:37;;;;;;;7.07;6.48;;;;;;;2.55;57.51;101847.37;479523;110;922534;-83
2022/11/15 00:59:58;;;;;;;6.38;5.83;;;;;;;2.56;57.63;101842.84;479553;110;922609;-85
2022/11/15 01:01:20;;;;;;;10.91;7.90;;;;;;;2.57;57.65;101850.80;479409;110;922601;-84
2022/11/15 01:02:41;;;;;;;7.21;6.60;;;;;;;2.60;57.55;101847.83;479458;110;922496;-83
2022/11/15 01:04:03;;;;;;;7.83;7.19;;;;;;;2.60;57.63;101847.83;476303;110;922844;-85
2022/11/15 01:05:25;;;;;;;9.04;8.27;;;;;;;2.61;57.56;101849.53;474113;111;922561;-83
2022/11/15 01:06:46;;;;;;;8.78;7.95;;;;;;;2.62;57.59;101853.94;471822;112;922548;-82
2022/11/15 01:08:11;;;;;;;7.60;6.91;;;;;;;2.63;57.60;101850.27;463912;114;922932;-84
2022/11/15 01:09:32;;;;;;;7.54;6.73;;;;;;;2.65;57.64;101852.80;463967;114;922825;-83
2022/11/15 01:10:53;;;;;;;5.66;5.15;;;;;;;2.64;57.66;101848.44;463926;114;923103;-83
2022/11/15 01:12:15;;;;;;;6.69;6.07;;;;;;;2.65;57.66;101852.80;463966;114;923152;-82
2022/11/15 01:13:38;;;;;;;6.07;5.57;;;;;;;2.63;57.61;101852.96;463955;114;922910;-84
2022/11/15 01:14:59;;;;;;;6.61;6.10;;;;;;;2.64;57.72;101853.82;463967;114;922920;-83
2022/11/15 01:16:21;;;;;;;6.71;6.24;;;;;;;2.64;57.70;101856.52;463989;114;922651;-84
2022/11/15 01:17:42;;;;;;;6.26;5.79;;;;;;;2.65;57.70;101853.66;463934;114;922871;-82
2022/11/15 01:19:03;;;;;;;6.85;6.23;;;;;;;2.65;57.60;101855.50;463916;114;922955;-84
2022/11/15 01:20:25;;;;;;;7.02;6.51;;;;;;;2.63;57.67;101857.49;463901;114;922771;-84
2022/11/15 01:21:51;;;;;;;6.62;6.12;;;;;;;2.63;57.63;101860.19;463917;114;922500;-84
2022/11/15 01:23:12;;;;;;;6.36;5.82;;;;;;;2.62;57.72;101856.63;463984;114;922483;-85
2022/11/15 01:24:34;;;;;;;5.84;5.43;;;;;;;2.59;57.67;101858.75;464002;114;922929;-84
2022/11/15 01:26:00;;;;;;;5.98;5.49;;;;;;;2.59;57.72;101861.44;463960;114;922509;-85
2022/11/15 01:27:21;;;;;;;6.00;5.50;;;;;;;2.59;57.82;101858.75;464003;114;922549;-83
2022/11/15 01:28:43;;;;;;;6.37;5.85;;;;;;;2.58;57.70;101860.58;463976;114;922856;-84
2022/11/15 01:30:04;;;;;;;;;;;;;;;2.56;57.74;101859.00;467869;114;922032;-85
2022/11/15 01:31:25;;;;;;;6.35;5.77;;;;;;;2.53;57.82;101853.89;463991;114;922296;-85
2022/11/15 01:32:47;;;;;;;6.11;5.66;;;;;;;2.50;57.95;101854.99;471295;112;922516;-85
2022/11/15 01:34:08;;;;;;;5.86;5.31;;;;;;;2.49;58.15;101859.52;472428;111;922643;-85
2022/11/15 01:35:29;;;;;;;5.93;5.46;;;;;;;2.47;58.06;101855.27;472290;112;922935;-83
2022/11/15 01:36:51;;;;;;;6.13;5.64;;;;;;;2.47;57.96;101849.88;472280;112;923071;-83
2022/11/15 01:38:12;;;;;;;4.72;4.32;;;;;;;2.43;57.87;101849.27;472284;112;923054;-86
2022/11/15 01:39:33;;;;;;;5.34;4.94;;;;;;;2.39;57.74;101850.53;472259;112;922475;-82
2022/11/15 01:40:55;;;;;;;5.74;5.24;;;;;;;2.34;57.67;101854.59;472272;112;922999;-84
2022/11/15 01:42:18;;;;;;;5.56;5.16;;;;;;;2.27;57.55;101856.95;472285;112;922543;-83
2022/11/15 01:43:39;;;;;;;5.72;5.27;;;;;;;2.21;57.58;101857.47;472326;112;922591;-84
2022/11/15 01:45:01;;;;;;;5.43;4.97;;;;;;;2.18;57.69;101859.57;472296;112;922642;-84
2022/11/15 01:46:29;;;;;;;6.17;5.58;;;;;;;2.16;57.74;101862.38;472281;112;922598;-84
2022/11/15 01:47:54;;;;;;;4.83;4.43;;;;;;;2.18;58.09;101859.57;472246;112;922605;-82
2022/11/15 01:49:18;;;;;;;4.59;4.17;;;;;;;2.19;58.27;101854.07;472267;112;922467;-82
2022/11/15 01:50:40;;;;;;;4.97;4.49;;;;;;;2.23;58.47;101849.27;472268;112;922554;-83
2022/11/15 01:52:04;;;;;;;5.44;4.99;;;;;;;2.24;58.45;101848.30;472324;112;922569;-82
2022/11/15 01:53:27;;;;;;;5.34;4.57;;;;;;;2.23;58.42;101850.13;472301;112;923120;-83
2022/11/15 01:54:52;;;;;;;5.36;4.96;;;;;;;2.20;58.33;101845.02;472309;112;922446;-83
2022/11/15 01:56:17;;;;;;;5.02;4.62;;;;;;;2.18;58.33;101840.73;472271;112;922645;-81
2022/11/15 01:57:41;;;;;;;4.69;4.34;;;;;;;2.14;58.25;101845.54;472307;112;922478;-84
2022/11/15 01:59:06;;;;;;;5.16;4.39;;;;;;;2.10;58.35;101842.23;472302;112;923263;-84
2022/11/15 02:00:28;;;;;;;5.33;4.02;;;;;;;2.08;58.43;101844.22;472343;112;922418;-84
2022/11/15 02:01:50;;;;;;;4.48;4.07;;;;;;;2.08;58.50;101846.05;472292;112;922879;-85
2022/11/15 02:03:12;;;;;;;4.10;3.77;;;;;;;2.07;58.52;101842.50;472309;112;922956;-83
2022/11/15 02:04:37;;;;;;;3.34;3.03;;;;;;;2.06;58.56;101845.31;472286;112;922585;-83
2022/11/15 02:05:59;;;;;;;4.56;4.19;;;;;;;2.05;58.67;101839.08;475515;111;923350;-83
2022/11/15 02:07:22;;;;;;;4.81;4.30;;;;;;;2.06;58.77;101839.94;476315;111;922521;-83
2022/11/15 02:08:44;;;;;;;7.18;4.46;;;;;;;2.05;58.73;101836.39;476210;111;922897;-82
2022/11/15 02:10:15;;;;;;;5.74;5.08;;;;;;;2.02;58.67;101833.97;476313;111;922628;-85
2022/11/15 02:11:37;;;;;;;5.08;4.62;;;;;;;2.00;58.66;101843.99;476128;111;922545;-82
2022/11/15 02:13:00;;;;;;;5.86;5.16;;;;;;;1.98;58.90;101837.91;476204;111;922553;-82
2022/11/15 02:14:23;;;;;;;6.15;5.61;;;;;;;1.97;58.99;101840.72;476214;111;923140;-82
2022/11/15 02:16:08;;;;;;;6.88;6.27;;;;;;;1.96;58.92;101836.31;476268;111;922572;-83
2022/11/15 02:17:33;;;;;;;6.72;6.12;;;;;;;1.92;58.82;101837.56;476298;111;922492;-84
2022/11/15 02:19:03;;;;;;;6.33;5.77;;;;;;;1.85;58.91;101836.36;461422;115;922791;-85
2022/11/15 02:20:46;;;;;;;6.48;5.90;;;;;;;1.82;58.99;101839.31;475773;111;922587;-81
2022/11/15 02:22:22;;;;;;;6.75;6.09;;;;;;;1.82;59.15;101842.83;476246;111;922614;-85
2022/11/15 02:23:59;;;;;;;6.95;6.38;;;;;;;1.79;59.25;101848.48;476271;111;922577;-82
2022/11/15 02:25:43;;;;;;;7.14;6.41;;;;;;;1.75;59.17;101849.72;476205;111;922635;-83
2022/11/15 02:27:24;;;;;;;6.18;5.68;;;;;;;1.72;59.34;101846.41;476276;111;923067;-82
2022/11/15 02:28:52;;;;;;;;;;;;;;;1.68;59.39;101846.68;480267;111;922221;-85
2022/11/15 02:30:35;;;;;;;7.06;6.41;;;;;;;1.68;59.66;101851.20;471321;111;922343;-83
2022/11/15 02:32:08;;;;;;;7.04;6.34;;;;;;;1.62;59.73;101847.19;468112;111;922994;-84
2022/11/15 02:33:45;;;;;;;7.16;6.51;;;;;;;1.57;59.73;101856.61;476251;111;922628;-82
2022/11/15 02:35:26;;;;;;;6.59;5.99;;;;;;;1.51;59.67;101844.52;453676;113;922751;-84
2022/11/15 02:37:10;;;;;;;6.71;6.11;;;;;;;1.45;59.72;101845.02;467754;113;922515;-83
2022/11/15 02:38:51;;;;;;;6.32;5.79;;;;;;;1.41;59.73;101850.77;467855;113;922702;-83
2022/11/15 02:40:37;;;;;;;6.14;5.63;;;;;;;1.39;59.96;101852.72;467811;113;922949;-84
2022/11/15 02:42:04;;;;;;;6.18;5.68;;;;;;;1.36;59.94;101851.16;467830;113;922533;-81
2022/11/15 02:45:12;;;;;;;5.58;5.11;;;;;;;1.28;60.11;101845.53;467854;113;922931;-85
2022/11/15 02:48:25;;;;;;;6.26;5.73;;;;;;;1.27;60.43;101845.68;467850;113;922447;-82
2022/11/15 02:49:49;;;;;;;6.15;5.65;;;;;;;1.26;60.47;101839.45;467798;113;922829;-82
2022/11/15 02:51:13;;;;;;;5.74;5.32;;;;;;;1.29;60.77;101838.33;467872;113;922532;-81
2022/11/15 02:52:34;;;;;;;6.01;5.51;;;;;;;1.33;60.94;101837.95;467824;113;922868;-81
2022/11/15 02:53:56;;;;;;;5.96;5.46;;;;;;;1.38;61.06;101834.91;467857;113;922952;-83
2022/11/15 02:55:30;;;;;;;5.83;5.33;;;;;;;1.41;61.22;101843.57;467795;113;922480;-83
2022/11/15 02:56:57;;;;;;;5.77;5.27;;;;;;;1.44;61.21;101837.93;467784;113;922515;-85
2022/11/15 02:58:42;;;;;;;6.23;5.72;;;;;;;1.46;60.96;101851.25;467795;113;923010;-83
2022/11/15 03:00:07;;;;;;;6.29;5.79;;;;;;;1.45;60.96;101847.70;474095;111;922794;-83
2022/11/15 03:01:35;;;;;;;5.71;5.08;;;;;;;1.44;60.88;101848.68;476201;111;922562;-83
2022/11/15 03:03:20;;;;;;;5.46;5.04;;;;;;;1.44;60.95;101843.30;476212;111;922539;-82
2022/11/15 03:05:00;;;;;;;5.70;5.20;;;;;;;1.47;61.21;101844.91;472405;111;923007;-81
2022/11/15 03:06:37;;;;;;;5.36;4.86;;;;;;;1.51;61.34;101843.66;458684;115;923045;-85
2022/11/15 03:08:05;;;;;;;6.00;5.42;;;;;;;1.55;61.34;101839.73;461531;115;922451;-83
2022/11/15 03:09:33;;;;;;;6.15;5.64;;;;;;;1.58;61.32;101840.36;454714;116;922687;-84
2022/11/15 03:11:10;;;;;;;5.44;4.99;;;;;;;1.57;61.15;101843.16;461476;113;922557;-84
2022/11/15 03:12:37;;;;;;;6.04;5.47;;;;;;;1.55;61.05;101845.97;461545;115;922871;-83
2022/11/15 03:14:02;;;;;;;6.09;5.48;;;;;;;1.52;60.88;101845.38;461546;115;922516;-83
2022/11/15 03:15:27;;;;;;;6.38;5.83;;;;;;;1.52;61.08;101848.06;461516;115;923626;-82
2022/11/15 03:17:09;;;;;;;6.31;5.74;;;;;;;1.53;61.20;101847.09;464623;113;922551;-82
2022/11/15 03:18:34;;;;;;;;;;;;;;;1.56;61.25;101846.83;469933;113;922455;-82
2022/11/15 03:19:58;;;;;;;7.20;5.47;;;;;;;1.57;61.30;101838.64;466058;113;922253;-83
2022/11/15 03:21:22;;;;;;;7.89;6.51;;;;;;;1.55;61.29;101837.91;466050;111;922897;-82
2022/11/15 03:22:45;;;;;;;5.74;5.25;;;;;;;1.55;61.38;101834.36;466117;113;922899;-85
2022/11/15 03:24:08;;;;;;;6.48;5.63;;;;;;;1.56;61.37;101839.63;466091;113;922878;-85
2022/11/15 03:25:33;;;;;;;5.83;5.33;;;;;;;1.59;61.35;101842.07;466091;113;922651;-85
2022/11/15 03:26:57;;;;;;;9.13;7.32;;;;;;;1.60;61.35;101843.75;466070;113;922867;-84
2022/11/15 03:28:22;;;;;;;7.32;6.69;;;;;;;1.62;61.35;101846.33;466065;113;922460;-84
2022/11/15 03:29:47;;;;;;;10.43;9.34;;;;;;;1.64;61.20;101839.00;465998;113;922595;-84
2022/11/15 03:32:55;;;;;;;14.98;13.79;;;;;;;1.64;61.10;101834.48;458333;115;922572;-84
2022/11/15 03:34:26;;;;;;;18.42;16.84;;;;;;;1.66;61.07;101842.39;458390;115;922661;-83
2022/11/15 03:35:48;;;;;;;;;;;;;;;1.66;61.13;101837.02;462296;113;922507;-84
2022/11/15 03:37:13;;;;;;;17.27;15.40;;;;;;;1.68;61.11;101837.76;450771;117;922387;-84
2022/11/15 03:38:35;;;;;;;16.34;14.91;;;;;;;1.66;61.13;101834.33;458525;115;922396;-82
2022/11/15 03:39:57;;;;;;;14.06;12.96;;;;;;;1.66;61.16;101826.27;449109;118;922684;-85
2022/11/15 03:41:27;;;;;;;13.91;12.54;;;;;;;1.67;61.20;101831.52;458447;115;922976;-83
2022/11/15 03:42:51;;;;;;;;;;;;;;;1.67;61.04;101836.91;452781;118;922025;-80
2022/11/15 03:44:16;;;;;;;12.75;11.75;;;;;;;1.64;60.66;101834.48;448648;118;922391;-84
2022/11/15 03:45:43;;;;;;;12.52;11.42;;;;;;;1.56;60.51;101822.64;458365;115;922597;-83
2022/11/15 03:47:23;;;;;;;13.05;11.88;;;;;;;1.49;60.49;101829.52;458480;115;922397;-82
2022/11/15 03:48:48;;;;;;;13.13;11.92;;;;;;;1.44;60.59;101835.24;448972;118;922518;-83
2022/11/15 03:50:16;;;;;;;12.15;11.07;;;;;;;1.40;60.65;101835.62;458383;115;922825;-83
2022/11/15 03:51:37;;;;;;;8.04;7.37;;;;;;;1.36;60.54;101835.03;449000;118;922585;-84
2022/11/15 03:52:59;;;;;;;9.99;9.13;;;;;;;1.32;60.55;101827.34;458436;115;922840;-84
2022/11/15 03:54:21;;;;;;;9.86;8.77;;;;;;;1.30;60.52;101826.61;458401;115;922925;-81
2022/11/15 03:55:42;;;;;;;11.40;10.50;;;;;;;1.29;60.53;101830.27;458448;115;922608;-86
2022/11/15 03:57:04;;;;;;;10.52;9.62;;;;;;;1.27;60.74;101830.38;450146;118;923229;-83
2022/11/15 03:58:25;;;;;;;7.93;7.23;;;;;;;1.29;60.88;101831.13;458531;115;922887;-84
2022/11/15 03:59:47;;;;;;;6.10;5.61;;;;;;;1.31;60.74;101833.70;458468;115;922952;-82
2022/11/15 04:01:08;;;;;;;6.64;6.04;;;;;;;1.29;60.75;101838.33;452906;115;922832;-84
2022/11/15 04:02:30;;;;;;;6.06;5.57;;;;;;;1.25;60.64;101838.59;452863;117;922474;-84
2022/11/15 04:03:51;;;;;;;6.20;5.71;;;;;;;1.22;60.55;101841.51;452887;117;923183;-84
2022/11/15 04:05:13;;;;;;;5.12;4.62;;;;;;;1.19;60.46;101843.59;458944;115;922824;-82
2022/11/15 04:06:34;;;;;;;7.81;5.35;;;;;;;1.15;60.50;101842.14;461234;115;922571;-84
2022/11/15 04:07:56;;;;;;;5.42;4.81;;;;;;;1.12;60.49;101851.28;461290;115;922807;-83
2022/11/15 04:09:17;;;;;;;5.52;5.11;;;;;;;1.09;60.54;101853.38;461274;115;922878;-84
2022/11/15 04:10:39;;;;;;;5.88;5.37;;;;;;;1.05;60.55;101850.06;461274;115;922468;-84
2022/11/15 04:12:01;;;;;;;5.72;5.29;;;;;;;1.01;60.41;101848.61;461316;115;922584;-84
2022/11/15 04:13:22;;;;;;;6.36;5.79;;;;;;;0.99;60.46;101853.27;461308;115;922517;-82
2022/11/15 04:15:06;;;;;;;9.03;5.48;;;;;;;0.95;60.51;101851.77;461292;115;922933;-83
2022/11/15 04:16:07;;;;;;;5.67;5.13;;;;;;;0.93;60.57;101851.06;461307;115;922633;-85
2022/11/15 04:17:28;;;;;;;5.27;4.88;;;;;;;0.92;60.68;101843.98;461216;115;922605;-82
2022/11/15 04:24:11;;;;;;;5.97;5.47;;;;;;;0.92;60.88;101841.30;461242;115;923333;-86
2022/11/15 04:25:06;;;;;;;5.04;4.58;;;;;;;1.02;61.39;101852.15;461217;115;922615;-84
2022/11/15 04:26:27;;;;;;;6.28;5.64;;;;;;;1.00;61.26;101854.09;461230;115;922558;-84
2022/11/15 04:27:48;;;;;;;6.15;5.66;;;;;;;1.00;61.49;101852.27;461299;115;922623;-84
2022/11/15 04:30:50;;;;;;;5.47;4.97;;;;;;;1.05;61.68;101850.06;453339;117;922654;-82
2022/11/15 04:32:12;;;;;;;5.68;5.25;;;;;;;1.08;61.68;101848.98;452076;117;922580;-80
2022/11/15 04:33:33;;;;;;;5.36;4.97;;;;;;;1.10;61.56;101855.09;448990;115;923210;-84
2022/11/15 04:34:55;;;;;;;5.99;5.46;;;;;;;1.12;61.63;101853.98;441434;120;922633;-85
2022/11/15 04:37:58;;;;;;;7.16;6.56;;;;;;;1.17;61.56;101856.28;441432;120;923577;-83
2022/11/15 04:39:20;;;;;;;9.48;8.69;;;;;;;1.18;61.44;101855.31;450575;117;922795;-84
2022/11/15 04:40:41;;;;;;;8.83;8.01;;;;;;;1.21;61.53;101855.91;441399;118;923329;-82
2022/11/15 04:42:03;;;;;;;9.67;8.70;;;;;;;1.22;61.65;101852.25;450593;117;922673;-82
2022/11/15 04:43:25;;;;;;;10.16;9.21;;;;;;;1.25;61.47;101853.85;441423;120;922528;-82
2022/11/15 04:44:46;;;;;;;10.21;9.41;;;;;;;1.25;61.28;101860.08;450578;117;922679;-85
2022/11/15 04:46:08;;;;;;;8.34;7.65;;;;;;;1.24;61.16;101857.52;441442;118;922599;-83
2022/11/15 04:47:29;;;;;;;9.29;8.47;;;;;;;1.23;61.11;101859.34;450590;117;922653;-84
2022/11/15 04:48:51;;;;;;;8.96;8.22;;;;;;;1.24;61.12;101863.73;441392;120;922604;-83
2022/11/15 04:50:16;;;;;;;9.55;8.77;;;;;;;1.26;61.09;101860.94;450515;117;922868;-83
2022/11/15 04:51:38;;;;;;;11.33;10.38;;;;;;;1.27;60.97;101864.48;441445;120;923202;-84
2022/11/15 04:52:59;;;;;;;9.03;8.30;;;;;;;1.28;60.94;101867.02;450532;117;922880;-83
2022/11/15 04:54:21;;;;;;;10.01;9.09;;;;;;;1.29;60.92;101865.20;441416;120;922883;-83
2022/11/15 04:55:45;;;;;;;10.93;9.95;;;;;;;1.30;60.95;101858.85;450527;117;922581;-82
2022/11/15 04:57:06;;;;;;;10.61;9.71;;;;;;;1.31;60.88;101869.48;441434;120;922518;-83
2022/11/15 04:58:28;;;;;;;10.50;9.69;;;;;;;1.33;60.78;101866.65;450523;117;922643;-83
2022/11/15 04:59:49;;;;;;;11.16;9.91;;;;;;;1.32;60.64;101870.34;441388;120;922904;-82
2022/11/15 05:01:14;;;;;;;7.96;7.21;;;;;;;1.30;60.26;101872.28;450549;117;922582;-85
2022/11/15 05:04:21;;;;;;;6.74;5.96;;;;;;;1.18;60.09;101872.29;450439;117;922599;-84
2022/11/15 05:05:42;;;;;;;6.81;6.02;;;;;;;1.10;59.79;101873.89;447301;118;922500;-84
2022/11/15 05:07:04;;;;;;;7.16;6.49;;;;;;;1.03;59.80;101880.72;451648;117;922691;-84
2022/11/15 05:08:26;;;;;;;7.66;6.91;;;;;;;1.00;60.07;101886.31;461769;115;922691;-82
2022/11/15 05:09:47;;;;;;;8.13;7.36;;;;;;;1.01;60.29;101885.34;461763;115;923021;-84
2022/11/15 05:11:09;;;;;;;7.52;6.86;;;;;;;1.00;60.27;101881.80;461744;115;923375;-83
2022/11/15 05:12:31;;;;;;;9.06;8.06;;;;;;;0.99;60.22;101885.48;461706;115;922570;-83
2022/11/15 05:13:52;;;;;;;10.16;9.47;;;;;;;0.94;60.10;101879.59;461785;115;922616;-82
2022/11/15 05:15:13;;;;;;;11.63;10.62;;;;;;;0.91;60.08;101882.54;461815;115;922621;-84
2022/11/15 05:16:35;;;;;;;12.23;11.24;;;;;;;0.87;59.88;101889.13;460255;115;922399;-84
2022/11/15 05:17:59;;;;;;;13.11;12.11;;;;;;;0.80;59.74;101894.13;466586;113;922904;-82
2022/11/15 05:19:20;;;;;;;12.39;11.37;;;;;;;0.74;59.74;101885.69;466567;113;922527;-83
2022/11/15 05:20:42;;;;;;;12.68;11.59;;;;;;;0.69;59.81;101890.56;466901;113;922826;-80
2022/11/15 05:22:04;;;;;;;13.28;12.08;;;;;;;0.66;59.93;101882.77;467195;113;922494;-83
2022/11/15 05:23:25;;;;;;;12.86;11.64;;;;;;;0.64;60.10;101882.88;466716;113;923220;-83
2022/11/15 05:24:46;;;;;;;;;;;;;;;0.65;60.24;101886.41;470432;113;922125;-82
2022/11/15 05:26:08;;;;;;;13.36;12.26;;;;;;;0.64;60.23;101892.75;466576;113;922213;-80
2022/11/15 05:27:30;;;;;;;13.34;12.23;;;;;;;0.59;60.37;101884.20;466610;113;922814;-82
2022/11/15 05:28:56;;;;;;;14.02;12.76;;;;;;;0.57;60.52;101889.68;466555;113;922680;-83
2022/11/15 05:30:18;;;;;;;14.22;12.91;;;;;;;0.57;60.58;101887.00;461219;113;922497;-83
2022/11/15 05:31:42;;;;;;;13.36;12.06;;;;;;;0.58;60.68;101890.54;458409;115;922532;-82
2022/11/15 05:33:04;;;;;;;13.36;12.32;;;;;;;0.58;60.75;101886.03;450178;118;922620;-83
2022/11/15 05:34:26;;;;;;;13.54;12.23;;;;;;;0.59;60.72;101885.06;457307;115;922905;-84
2022/11/15 05:35:51;;;;;;;13.87;11.34;;;;;;;0.58;60.71;101882.48;456094;116;922902;-82
2022/11/15 05:37:14;;;;;;;11.35;10.19;;;;;;;0.56;60.66;101881.73;455198;116;922440;-81
2022/11/15 05:38:35;;;;;;;11.60;10.58;;;;;;;0.54;60.84;101884.56;454763;116;922633;-84
2022/11/15 05:39:57;;;;;;;11.74;10.84;;;;;;;0.57;60.93;101891.50;454728;116;922656;-82
2022/11/15 05:41:22;;;;;;;11.12;10.12;;;;;;;0.58;60.99;101885.17;454680;116;922570;-83
2022/11/15 05:42:44;;;;;;;11.18;10.26;;;;;;;0.60;60.99;101893.97;454701;116;922668;-82
2022/11/15 05:44:09;;;;;;;11.38;10.29;;;;;;;0.61;61.05;101895.66;454736;116;922621;-82
2022/11/15 05:45:33;;;;;;;11.13;10.24;;;;;;;0.64;61.23;101895.44;454709;116;922905;-84
2022/11/15 05:46:56;;;;;;;11.52;10.36;;;;;;;0.68;61.49;101897.76;454685;116;922985;-84
2022/11/15 05:48:19;;;;;;;10.42;9.48;;;;;;;0.73;61.46;101895.57;456625;114;923118;-82
2022/11/15 05:49:44;;;;;;;10.92;9.67;;;;;;;0.73;61.45;101892.02;462670;114;922642;-83
2022/11/15 05:51:07;;;;;;;12.02;9.53;;;;;;;0.74;61.30;101894.59;462650;114;922696;-84
2022/11/15 05:52:31;;;;;;;10.78;9.77;;;;;;;0.73;61.15;101894.71;462690;114;922658;-85
2022/11/15 05:53:56;;;;;;;10.59;9.42;;;;;;;0.70;61.12;101895.82;462668;114;922622;-84
2022/11/15 05:55:18;;;;;;;10.25;9.23;;;;;;;0.70;61.13;101900.33;462594;114;922636;-83
2022/11/15 05:56:40;;;;;;;11.07;10.08;;;;;;;0.70;61.24;101905.70;462663;114;922540;-84
2022/11/15 05:58:01;;;;;;;9.36;8.58;;;;;;;0.72;61.39;101903.73;462613;114;923050;-82
2022/11/15 05:59:23;;;;;;;9.82;9.04;;;;;;;0.76;61.60;101905.23;462693;114;922510;-81
2022/11/15 06:00:45;;;;;;;10.98;9.93;;;;;;;0.82;61.76;101902.06;462675;114;923046;-83
2022/11/15 06:02:06;;;;;;;10.04;8.93;;;;;;;0.88;61.97;101901.59;462603;114;922553;-82
2022/11/15 06:03:28;;;;;;;10.61;9.69;;;;;;;0.94;61.98;101903.77;462664;114;922957;-85
2022/11/15 06:04:49;;;;;;;9.91;9.04;;;;;;;1.01;62.00;101896.09;462651;114;923025;-84
2022/11/15 06:06:11;;;;;;;8.94;8.08;;;;;;;1.04;61.82;101899.41;445382;118;922660;-80
2022/11/15 06:07:34;;;;;;;10.12;8.06;;;;;;;1.07;61.75;101914.41;450890;117;922525;-83
2022/11/15 06:08:55;;;;;;;9.01;8.13;;;;;;;1.08;61.62;101914.30;453732;117;922817;-84
2022/11/15 06:10:17;;;;;;;9.36;8.44;;;;;;;1.08;61.62;101911.61;453672;117;923349;-83
2022/11/15 06:11:39;;;;;;;9.01;8.23;;;;;;;1.10;61.65;101896.20;453667;117;922578;-83
2022/11/15 06:13:01;;;;;;;9.84;8.91;;;;;;;1.12;61.58;101904.16;453666;117;922657;-81
2022/11/15 06:14:23;;;;;;;10.29;9.50;;;;;;;1.14;61.68;101899.52;453688;117;922653;-83
2022/11/15 06:15:45;;;;;;;11.24;8.97;;;;;;;1.15;61.55;101896.73;453059;117;922771;-84
2022/11/15 06:17:06;;;;;;;10.81;9.60;;;;;;;1.17;61.51;101886.69;466290;113;922665;-81
2022/11/15 06:18:33;;;;;;;9.52;8.71;;;;;;;1.15;61.43;101888.67;466634;113;922487;-83
2022/11/15 06:19:54;;;;;;;9.51;8.76;;;;;;;1.15;61.44;101887.81;466653;113;922537;-81
2022/11/15 06:21:16;;;;;;;8.91;8.21;;;;;;;1.14;61.52;101889.64;466622;113;922556;-82
2022/11/15 06:22:37;;;;;;;8.31;7.68;;;;;;;1.16;61.56;101890.34;466668;113;922906;-82
2022/11/15 06:23:59;;;;;;;6.81;6.27;;;;;;;1.17;61.59;101886.69;466665;113;922552;-82
2022/11/15 06:25:20;;;;;;;5.66;5.03;;;;;;;1.20;61.49;101883.78;466696;113;922654;-85
2022/11/15 06:26:41;;;;;;;5.44;4.62;;;;;;;1.20;61.50;101881.09;466856;113;922616;-83
2022/11/15 06:28:03;;;;;;;5.57;5.01;;;;;;;1.20;61.41;101875.72;466623;113;922989;-81
2022/11/15 06:29:25;;;;;;;7.52;5.71;;;;;;;1.19;61.37;101879.38;466740;113;922600;-83
2022/11/15 06:30:46;;;;;;;6.14;5.58;;;;;;;1.17;61.24;101873.27;466751;113;922544;-84
2022/11/15 06:32:10;;;;;;;6.14;5.69;;;;;;;1.15;61.26;101879.75;468922;111;922976;-84
2022/11/15 06:33:31;;;;;;;6.24;5.71;;;;;;;1.13;61.17;101879.86;475278;111;922973;-81
2022/11/15 06:34:53;;;;;;;10.51;5.53;;;;;;;1.13;61.29;101882.55;466781;113;922877;-81
2022/11/15 06:36:16;;;;;;;8.57;5.36;;;;;;;1.12;61.28;101878.15;466728;113;922385;-82
2022/11/15 06:37:38;;;;;;;6.54;5.76;;;;;;;1.11;61.29;101879.12;466753;113;922671;-83
2022/11/15 06:39:00;;;;;;;6.18;5.62;;;;;;;1.09;61.33;101881.09;466762;113;922890;-81
2022/11/15 06:40:22;;;;;;;6.24;5.63;;;;;;;1.07;61.40;101883.03;466812;113;922664;-82
2022/11/15 06:41:43;;;;;;;7.06;5.29;;;;;;;1.05;61.39;101884.97;466748;113;922749;-81
2022/11/15 06:43:06;;;;;;;8.93;6.38;;;;;;;1.05;61.39;101884.12;466744;113;922589;-81
2022/11/15 06:44:27;;;;;;;7.37;6.72;;;;;;;1.03;61.44;101886.95;468035;111;922562;-83
2022/11/15 06:45:48;;;;;;;11.44;10.44;;;;;;;1.06;61.52;101891.20;475183;111;922847;-81